Time;durP1;ratioP1;P1;durP2;ratioP2;P2;SDS_P1;SDS_P2;PMS_P1;PMS_P2;Temp;Humidity;BMP_temperature;BMP_pressure;BME280_temperature;BME280_humidity;BME280_pressure;Samples;Min_cycle;Max_cycle;Signal;HPM_P1;HPM_P2
2021/04/25 00:00:20;;;;;;;14.38;3.17;;;;;;;4.70;42.85;101329.81;1757735;80;25807;-61
2021/04/25 00:02:49;;;;;;;12.55;3.80;;;;;;;4.66;42.94;101325.42;1725372;80;26072;-61
2021/04/25 00:05:20;;;;;;;9.85;4.05;;;;;;;4.64;43.02;101327.66;1702232;82;25930;-60
2021/04/25 00:07:48;;;;;;;7.58;2.72;;;;;;;4.63;43.04;101328.55;1745672;81;27779;-61
2021/04/25 00:10:19;;;;;;;10.18;3.25;;;;;;;4.60;43.07;101326.80;1707541;82;25820;-60
2021/04/25 00:12:48;;;;;;;10.18;3.47;;;;;;;4.57;43.11;101318.86;1737224;81;25801;-60
2021/04/25 00:15:25;;;;;;;5.53;2.75;;;;;;;4.53;43.12;101314.02;1720349;81;26623;-60
2021/04/25 00:17:53;;;;;;;9.70;2.85;;;;;;;4.49;43.17;101317.59;1728243;80;25933;-61
2021/04/25 00:20:22;;;;;;;8.23;2.95;;;;;;;4.44;43.19;101315.87;1738127;81;27836;-60
2021/04/25 00:22:50;;;;;;;5.03;2.45;;;;;;;4.40;43.23;101312.36;1761962;79;25917;-62
2021/04/25 00:25:19;;;;;;;9.23;2.80;;;;;;;4.34;43.26;101316.38;1755781;80;25925;-62
2021/04/25 00:27:48;;;;;;;10.18;2.80;;;;;;;4.30;43.35;101312.44;1755784;79;26994;-61
2021/04/25 00:30:19;;;;;;;6.65;2.85;;;;;;;4.26;43.37;101314.23;1758259;80;25911;-60
2021/04/25 00:32:49;;;;;;;9.43;2.80;;;;;;;4.22;43.46;101317.79;1711339;81;28168;-61
2021/04/25 00:35:19;;;;;;;6.05;2.72;;;;;;;4.19;43.48;101319.14;1754549;80;25907;-61
2021/04/25 00:37:47;;;;;;;7.15;2.52;;;;;;;4.11;43.62;101320.52;1769761;79;26671;-60
2021/04/25 00:40:18;;;;;;;11.97;3.47;;;;;;;4.04;43.78;101313.93;1762194;79;25799;-60
2021/04/25 00:42:49;;;;;;;7.97;3.15;;;;;;;4.01;43.86;101321.91;1738708;80;25871;-60
2021/04/25 00:45:19;;;;;;;5.30;2.85;;;;;;;3.98;43.92;101315.28;1751091;80;28516;-60
2021/04/25 00:47:49;;;;;;;6.80;2.90;;;;;;;3.95;44.06;101320.16;1736364;80;25823;-60
2021/04/25 00:50:24;;;;;;;7.35;3.20;;;;;;;3.89;44.15;101310.92;1765792;80;26438;-60
2021/04/25 00:52:59;;;;;;;7.95;2.85;;;;;;;3.85;44.27;101309.17;1722463;80;25821;-60
2021/04/25 00:55:29;;;;;;;13.72;2.92;;;;;;;3.82;44.49;101310.06;1755014;79;25864;-60
2021/04/25 00:57:58;;;;;;;8.03;2.98;;;;;;;3.77;44.50;101307.88;1700548;83;27657;-60
2021/04/25 01:00:27;;;;;;;5.92;2.85;;;;;;;3.73;44.58;101304.81;1743963;79;25870;-59
2021/04/25 01:02:57;;;;;;;7.55;2.40;;;;;;;3.67;44.67;101304.84;1698636;83;25803;-60
2021/04/25 01:05:25;;;;;;;5.60;2.60;;;;;;;3.63;44.78;101300.88;1742580;80;26562;-60
2021/04/25 01:07:54;;;;;;;4.60;2.40;;;;;;;3.52;44.93;101286.35;1697271;83;25911;-60
2021/04/25 01:10:22;;;;;;;5.92;2.17;;;;;;;3.51;45.04;101298.72;1743297;80;28450;-60
2021/04/25 01:12:50;;;;;;;5.05;2.00;;;;;;;3.41;45.11;101288.16;1703016;81;26429;-60
2021/04/25 01:15:18;;;;;;;9.00;2.62;;;;;;;3.46;45.21;101293.88;1726421;80;25904;-60
2021/04/25 01:17:48;;;;;;;5.20;2.30;;;;;;;3.43;45.27;101295.22;1770264;79;26524;-60
2021/04/25 01:20:20;;;;;;;8.53;2.77;;;;;;;3.38;45.34;101302.30;1754489;80;25828;-60
2021/04/25 01:22:49;;;;;;;7.45;2.70;;;;;;;3.32;45.45;101298.35;1747362;79;27842;-60
2021/04/25 01:25:20;;;;;;;6.92;2.30;;;;;;;3.29;45.61;101301.02;1734649;81;26164;-60
2021/04/25 01:27:49;;;;;;;6.70;2.40;;;;;;;3.24;45.69;101297.49;1737537;80;25832;-60
2021/04/25 01:30:22;;;;;;;6.72;2.70;;;;;;;3.19;45.76;101301.92;1700377;81;26598;-60
2021/04/25 01:32:53;;;;;;;5.87;2.20;;;;;;;3.13;45.98;101300.17;1710817;81;26211;-60
2021/04/25 01:35:24;;;;;;;5.80;1.87;;;;;;;3.10;46.00;101300.63;1692750;83;28277;-61
2021/04/25 01:37:55;;;;;;;10.18;2.67;;;;;;;3.05;46.06;101292.69;1737688;79;25934;-60
2021/04/25 01:40:26;;;;;;;5.97;2.08;;;;;;;2.98;46.12;101292.26;1776180;79;27349;-60
2021/04/25 01:42:55;;;;;;;4.03;2.02;;;;;;;2.93;46.14;101288.30;1740333;80;26195;-61
2021/04/25 01:45:24;;;;;;;6.28;2.20;;;;;;;2.88;46.21;101295.37;1760368;79;25967;-60
2021/04/25 01:47:55;;;;;;;6.20;2.15;;;;;;;2.86;46.26;101291.84;1758832;80;27779;-61
2021/04/25 01:50:27;;;;;;;7.90;2.33;;;;;;;2.84;46.34;101288.75;1761604;79;25814;-60
2021/04/25 01:52:57;;;;;;;6.47;2.45;;;;;;;2.73;46.37;101272.89;1763987;79;25896;-61
2021/04/25 01:55:30;;;;;;;4.28;2.55;;;;;;;2.77;46.51;101290.53;1709978;81;26273;-60
2021/04/25 01:57:59;;;;;;;4.97;1.67;;;;;;;2.71;46.70;101286.56;1764622;79;25887;-60
2021/04/25 02:00:32;;;;;;;8.93;2.30;;;;;;;2.68;46.75;101282.59;1789640;78;27783;-60
2021/04/25 02:03:05;;;;;;;8.23;1.80;;;;;;;2.66;46.81;101285.69;1712179;82;25872;-60
2021/04/25 02:05:33;;;;;;;7.83;2.65;;;;;;;2.61;47.07;101288.34;1744131;78;25915;-60
2021/04/25 02:08:04;;;;;;;5.22;2.60;;;;;;;2.57;47.06;101293.23;1771532;79;26488;-60
2021/04/25 02:10:33;;;;;;;4.50;2.40;;;;;;;2.52;47.19;101292.78;1790968;78;25833;-61
2021/04/25 02:13:04;;;;;;;4.67;2.10;;;;;;;2.48;47.27;101285.29;1769337;79;27368;-61
2021/04/25 02:15:33;;;;;;;7.03;2.00;;;;;;;2.43;47.35;101287.49;1766481;78;25897;-60
2021/04/25 02:18:01;;;;;;;7.00;2.22;;;;;;;2.40;47.42;101292.34;1722118;82;25875;-61
2021/04/25 02:20:31;;;;;;;9.98;2.30;;;;;;;2.34;47.53;101284.84;1752223;79;26397;-60
2021/04/25 02:22:59;;;;;;;7.30;2.62;;;;;;;2.28;47.77;101290.58;1805576;78;25865;-60
2021/04/25 02:25:27;;;;;;;5.37;2.62;;;;;;;2.23;47.91;101281.75;1742618;79;28172;-60
2021/04/25 02:27:57;;;;;;;5.05;2.15;;;;;;;2.19;48.06;101282.63;1788735;78;25739;-60
2021/04/25 02:30:29;;;;;;;7.10;2.72;;;;;;;2.14;48.29;101277.78;1765886;79;25845;-61
2021/04/25 02:32:59;;;;;;;5.97;2.25;;;;;;;2.11;48.42;101279.09;1762157;79;25834;-61
2021/04/25 02:35:29;;;;;;;8.78;1.80;;;;;;;2.08;48.45;101280.41;1785225;78;25846;-60
2021/04/25 02:37:59;;;;;;;5.58;2.10;;;;;;;2.06;48.49;101281.29;1797365;78;28479;-60
2021/04/25 02:40:30;;;;;;;5.85;1.60;;;;;;;2.03;48.81;101278.20;1765456;78;25839;-61
2021/04/25 02:43:04;;;;;;;5.08;1.95;;;;;;;2.00;49.20;101274.67;1766299;79;25947;-60
2021/04/25 02:45:33;;;;;;;11.30;2.02;;;;;;;1.97;49.28;101279.95;1791290;78;26401;-61
2021/04/25 02:48:06;;;;;;;4.28;2.00;;;;;;;1.95;49.42;101277.30;1776717;79;26603;-60
2021/04/25 02:50:40;;;;;;;5.00;2.42;;;;;;;1.92;49.56;101274.66;1770496;78;27673;-60
2021/04/25 02:53:10;;;;;;;9.70;2.35;;;;;;;1.90;49.66;101276.41;1773528;79;25880;-61
2021/04/25 02:55:40;;;;;;;3.98;1.60;;;;;;;1.87;49.67;101272.00;1796826;78;26542;-61
2021/04/25 02:58:09;;;;;;;5.65;1.90;;;;;;;1.85;49.79;101267.16;1801051;78;25818;-61
2021/04/25 03:00:39;;;;;;;10.15;2.60;;;;;;;1.83;49.84;101272.88;1768245;79;26171;-60
2021/04/25 03:03:07;;;;;;;5.25;2.00;;;;;;;1.81;49.94;101265.82;1789680;78;26026;-61
2021/04/25 03:05:34;;;;;;;4.67;1.75;;;;;;;1.77;50.05;101262.73;1790675;78;26111;-61
2021/04/25 03:08:05;;;;;;;6.37;2.22;;;;;;;1.74;50.28;101264.05;1772187;78;26013;-60
2021/04/25 03:10:34;;;;;;;10.08;2.45;;;;;;;1.72;50.33;101271.97;1764162;78;25783;-61
2021/04/25 03:13:02;;;;;;;8.93;3.65;;;;;;;1.71;50.37;101270.64;1768010;79;25821;-61
2021/04/25 03:15:32;;;;;;;10.90;2.15;;;;;;;1.67;50.37;101268.43;1776134;78;28379;-60
2021/04/25 03:17:59;;;;;;;4.28;2.00;;;;;;;1.66;50.49;101267.98;1767009;79;25763;-61
2021/04/25 03:20:27;;;;;;;4.45;1.80;;;;;;;1.66;50.49;101272.39;1797236;78;26531;-60
2021/04/25 03:22:55;;;;;;;7.53;2.27;;;;;;;1.63;50.77;101267.98;1795443;78;26398;-60
2021/04/25 03:25:25;;;;;;;6.95;1.90;;;;;;;1.62;50.72;101270.17;1799526;78;25870;-61
2021/04/25 03:27:53;;;;;;;4.03;1.47;;;;;;;1.60;50.99;101265.33;1760665;79;27470;-61
2021/04/25 03:30:21;;;;;;;5.47;1.85;;;;;;;1.58;51.11;101264.00;1797180;78;26024;-61
2021/04/25 03:32:49;;;;;;;8.73;2.15;;;;;;;1.56;51.22;101267.08;1771288;78;25868;-60
2021/04/25 03:35:18;;;;;;;4.87;2.40;;;;;;;1.55;51.22;101262.67;1768412;79;26574;-60
2021/04/25 03:37:47;;;;;;;4.35;1.77;;;;;;;1.53;51.42;101263.10;1791591;78;25751;-61
2021/04/25 03:40:19;;;;;;;7.40;2.62;;;;;;;1.54;51.42;101262.22;1785372;78;27215;-61
2021/04/25 03:42:49;;;;;;;2.52;1.30;;;;;;;1.52;51.60;101262.66;1780397;78;25840;-61
2021/04/25 03:45:18;;;;;;;3.12;1.42;;;;;;;1.52;51.66;101264.42;1771200;79;26148;-61
2021/04/25 03:47:51;;;;;;;6.80;1.62;;;;;;;1.50;51.77;101256.48;1749695;79;25892;-60
2021/04/25 03:50:23;;;;;;;6.20;1.60;;;;;;;1.52;51.76;101256.05;1740596;80;25854;-60
2021/04/25 03:52:51;;;;;;;4.90;2.02;;;;;;;1.51;51.80;101259.57;1763836;79;28665;-60
2021/04/25 03:55:22;;;;;;;5.05;2.20;;;;;;;1.50;51.86;101261.77;1772258;79;26032;-60
2021/04/25 03:57:50;;;;;;;7.20;2.10;;;;;;;1.51;51.96;101259.57;1771143;79;25748;-60
2021/04/25 04:00:21;;;;;;;6.47;2.10;;;;;;;1.50;52.04;101263.09;1757117;80;25941;-60
2021/04/25 04:02:50;;;;;;;9.73;2.12;;;;;;;1.46;52.28;101261.31;1747155;80;26525;-60
2021/04/25 04:05:18;;;;;;;5.45;2.05;;;;;;;1.44;52.34;101263.07;1739081;80;27803;-61
2021/04/25 04:07:46;;;;;;;10.30;2.77;;;;;;;1.44;52.39;101260.42;1773554;79;25811;-60
2021/04/25 04:10:16;;;;;;;7.22;2.67;;;;;;;1.45;52.54;101259.55;1755928;79;26436;-60
2021/04/25 04:12:43;;;;;;;10.45;3.00;;;;;;;1.47;52.53;101256.48;1739236;80;25885;-61
2021/04/25 04:15:13;;;;;;;9.25;2.62;;;;;;;1.47;52.65;101260.44;1773095;79;25944;-60
2021/04/25 04:17:42;;;;;;;8.25;2.65;;;;;;;1.50;52.62;101262.20;1774834;79;27689;-60
2021/04/25 04:20:12;;;;;;;6.87;2.58;;;;;;;1.52;52.97;101261.78;1732900;79;25929;-60
2021/04/25 04:22:40;;;;;;;7.45;2.80;;;;;;;1.52;53.07;101263.98;1740241;79;25826;-60
2021/04/25 04:25:10;;;;;;;12.88;3.15;;;;;;;1.53;53.12;101259.58;1768597;79;25941;-60
2021/04/25 04:27:38;;;;;;;12.03;2.92;;;;;;;1.54;53.02;101268.83;1762754;79;25844;-60
2021/04/25 04:30:08;;;;;;;9.33;2.80;;;;;;;1.56;53.02;101264.44;1766093;79;27566;-61
2021/04/25 04:32:36;;;;;;;9.10;2.47;;;;;;;1.58;53.05;101266.64;1744621;79;25851;-60
2021/04/25 04:35:05;;;;;;;7.35;1.92;;;;;;;1.60;53.13;101266.20;1722133;80;25940;-60
2021/04/25 04:37:33;;;;;;;9.25;2.55;;;;;;;1.62;53.28;101263.57;1729816;79;26081;-60
2021/04/25 04:40:04;;;;;;;12.23;3.12;;;;;;;1.64;53.31;101264.45;1773353;79;25840;-60
2021/04/25 04:42:32;;;;;;;11.03;3.02;;;;;;;1.67;53.41;101267.55;1767844;79;27784;-60
2021/04/25 04:45:00;;;;;;;8.48;3.12;;;;;;;1.71;53.51;101269.32;1767234;79;25915;-60
2021/04/25 04:47:29;;;;;;;8.05;2.30;;;;;;;1.74;53.48;101266.25;1795942;78;25854;-60
2021/04/25 04:49:58;;;;;;;3.80;2.00;;;;;;;1.69;53.67;101251.26;1798378;78;26300;-60
2021/04/25 04:52:25;;;;;;;5.65;1.77;;;;;;;1.80;53.61;101270.66;1771521;78;26418;-60
2021/04/25 04:54:53;;;;;;;7.20;2.52;;;;;;;1.82;53.55;101263.63;1795320;78;27898;-60
2021/04/25 04:57:22;;;;;;;10.88;2.70;;;;;;;1.85;53.59;101267.59;1769293;79;26454;-61
2021/04/25 04:59:52;;;;;;;4.83;1.82;;;;;;;1.90;53.59;101271.13;1779208;78;25633;-60
2021/04/25 05:02:22;;;;;;;10.45;3.35;;;;;;;1.92;53.59;101267.61;1792062;78;26224;-59
2021/04/25 05:04:52;;;;;;;8.78;1.95;;;;;;;1.97;53.74;101258.36;1774717;78;25883;-60
2021/04/25 05:07:21;;;;;;;13.65;2.35;;;;;;;2.03;53.90;101270.71;1772572;78;27792;-61
2021/04/25 05:09:51;;;;;;;10.10;2.10;;;;;;;2.07;53.93;101264.55;1777059;78;25860;-59
2021/04/25 05:12:19;;;;;;;4.97;1.57;;;;;;;2.09;53.93;101264.98;1774262;78;25915;-60
2021/04/25 05:14:46;;;;;;;11.70;1.95;;;;;;;2.14;53.98;101261.91;1773556;78;26050;-60
2021/04/25 05:17:17;;;;;;;4.85;2.15;;;;;;;2.19;54.09;101267.20;1811870;78;25978;-60
2021/04/25 05:19:45;;;;;;;4.15;1.32;;;;;;;2.22;54.02;101261.47;1737047;79;27843;-60
2021/04/25 05:22:15;;;;;;;6.67;1.70;;;;;;;2.27;54.12;101262.36;1792675;78;26450;-61
2021/04/25 05:24:45;;;;;;;5.53;2.00;;;;;;;2.31;54.06;101260.59;1758126;78;25825;-61
2021/04/25 05:27:13;;;;;;;6.10;2.53;;;;;;;2.40;54.31;101263.69;1777284;78;25726;-63
2021/04/25 05:29:42;;;;;;;3.47;1.82;;;;;;;2.50;54.35;101264.13;1771354;78;26446;-61
2021/04/25 05:32:09;;;;;;;9.93;2.22;;;;;;;2.56;54.64;101260.15;1766136;79;25975;-61
2021/04/25 05:34:37;;;;;;;4.42;1.85;;;;;;;2.64;54.54;101262.75;1765817;78;26021;-60
2021/04/25 05:37:07;;;;;;;3.37;1.40;;;;;;;2.69;54.57;101259.22;1804120;78;25693;-61
2021/04/25 05:39:36;;;;;;;3.30;1.25;;;;;;;2.73;54.41;101266.27;1785204;78;26745;-61
2021/04/25 05:42:05;;;;;;;6.28;1.72;;;;;;;2.79;54.64;101263.61;1770666;79;25935;-61
2021/04/25 05:44:33;;;;;;;10.00;1.92;;;;;;;2.85;54.55;101265.37;1801237;78;27748;-61
2021/04/25 05:47:01;;;;;;;9.15;1.95;;;;;;;2.89;54.93;101269.33;1799484;78;25876;-61
2021/04/25 05:49:32;;;;;;;4.62;1.52;;;;;;;2.94;55.14;101277.27;1789486;78;25978;-61
2021/04/25 05:52:00;;;;;;;;;;;;;;;2.94;54.85;101274.17;1799876;78;26807;-60
2021/04/25 05:54:30;;;;;;;6.72;1.90;;;;;;;2.96;54.99;101267.55;1775092;78;25715;-60
2021/04/25 05:56:58;;;;;;;5.47;2.33;;;;;;;2.99;54.92;101273.28;1771473;79;27980;-61
2021/04/25 05:59:25;;;;;;;5.28;1.45;;;;;;;3.02;54.97;101270.19;1782440;78;25908;-61
2021/04/25 06:01:53;;;;;;;4.53;1.80;;;;;;;3.07;55.01;101278.12;1770791;78;25811;-61
2021/04/25 06:04:21;;;;;;;6.33;1.30;;;;;;;3.10;55.13;101271.48;1766922;79;26079;-61
2021/04/25 06:06:51;;;;;;;6.70;1.70;;;;;;;3.15;55.40;101267.94;1792057;78;25821;-61
2021/04/25 06:09:19;;;;;;;4.85;1.62;;;;;;;3.19;55.54;101265.72;1758575;79;26292;-61
2021/04/25 06:11:47;;;;;;;9.78;1.77;;;;;;;3.25;55.63;101261.72;1763877;78;25902;-63
2021/04/25 06:14:17;;;;;;;5.15;1.65;;;;;;;3.31;55.85;101270.53;1756367;79;25839;-61
2021/04/25 06:16:45;;;;;;;4.85;1.60;;;;;;;3.37;55.86;101268.75;1772583;78;26213;-61
2021/04/25 06:19:14;;;;;;;7.20;1.75;;;;;;;3.44;55.88;101266.95;1787517;78;25808;-65
2021/04/25 06:21:42;;;;;;;6.97;1.70;;;;;;;3.50;55.89;101278.41;1760486;78;27655;-61
2021/04/25 06:24:10;;;;;;;8.98;1.87;;;;;;;3.51;55.90;101266.92;1774750;79;25817;-61
2021/04/25 06:26:38;;;;;;;5.58;2.12;;;;;;;3.50;55.93;101274.88;1794358;78;25844;-61
2021/04/25 06:29:05;;;;;;;9.45;2.10;;;;;;;3.52;56.14;101268.68;1787701;78;26185;-61
2021/04/25 06:31:34;;;;;;;6.25;1.72;;;;;;;3.59;56.09;101265.11;1762244;79;26544;-62
2021/04/25 06:34:04;;;;;;;3.50;1.55;;;;;;;3.71;56.11;101271.23;1770515;79;27777;-61
2021/04/25 06:36:31;;;;;;;7.72;2.30;;;;;;;3.79;56.04;101266.33;1741997;79;25913;-61
2021/04/25 06:38:59;;;;;;;4.28;1.80;;;;;;;3.85;56.05;101276.02;1758391;79;26236;-61
2021/04/25 06:41:27;;;;;;;5.35;1.90;;;;;;;3.88;56.00;101281.31;1751202;79;26194;-61
2021/04/25 06:43:57;;;;;;;5.25;1.57;;;;;;;3.92;56.17;101283.05;1727487;81;25857;-61
2021/04/25 06:46:26;;;;;;;13.60;2.10;;;;;;;3.91;56.15;101282.61;1752090;79;28213;-61
2021/04/25 06:48:54;;;;;;;7.50;1.90;;;;;;;3.93;56.18;101275.53;1755225;80;26377;-64
2021/04/25 06:51:23;;;;;;;2.87;1.35;;;;;;;3.98;56.29;101272.41;1776418;79;26075;-65
2021/04/25 06:53:53;;;;;;;4.40;2.08;;;;;;;4.05;56.41;101275.90;1744133;80;26494;-64
2021/04/25 06:56:22;;;;;;;5.22;1.60;;;;;;;4.13;56.31;101272.75;1747047;79;25914;-63
2021/04/25 06:58:50;;;;;;;3.80;1.80;;;;;;;4.19;56.31;101278.89;1746461;80;28636;-64
2021/04/25 07:01:20;;;;;;;3.52;1.57;;;;;;;4.26;56.30;101274.88;1746690;79;25915;-64
2021/04/25 07:03:53;;;;;;;9.10;2.00;;;;;;;4.31;56.32;101273.94;1724572;80;25761;-63
2021/04/25 07:06:23;;;;;;;9.98;1.82;;;;;;;4.40;56.27;101284.48;1739076;80;25627;-63
2021/04/25 07:08:52;;;;;;;5.62;1.90;;;;;;;4.40;56.14;101278.30;1772416;79;25739;-63
2021/04/25 07:11:20;;;;;;;7.03;2.17;;;;;;;4.39;56.17;101282.72;1741980;80;26301;-60
2021/04/25 07:13:50;;;;;;;6.42;1.98;;;;;;;4.41;56.12;101278.73;1732034;79;26215;-61
2021/04/25 07:16:19;;;;;;;9.00;2.22;;;;;;;4.42;56.14;101285.36;1759728;79;26674;-64
2021/04/25 07:18:47;;;;;;;3.45;1.80;;;;;;;4.47;56.12;101270.72;1734225;79;26593;-64
2021/04/25 07:21:14;;;;;;;7.45;2.10;;;;;;;4.61;56.29;101266.17;1768505;79;25797;-65
2021/04/25 07:23:42;;;;;;;2.92;1.60;;;;;;;4.75;56.16;101274.89;1783139;79;27586;-66
2021/04/25 07:26:12;;;;;;;8.65;2.17;;;;;;;4.90;56.10;101277.84;1756259;80;25875;-65
2021/04/25 07:28:40;;;;;;;7.28;2.10;;;;;;;4.98;55.80;101279.09;1781292;79;25781;-59
2021/04/25 07:31:10;;;;;;;9.35;2.22;;;;;;;4.98;55.51;101275.99;1776075;79;26418;-64
2021/04/25 07:33:39;;;;;;;4.60;1.57;;;;;;;5.17;55.23;101271.36;1760423;79;26110;-65
2021/04/25 07:36:09;;;;;;;3.05;1.52;;;;;;;5.17;55.23;101271.36;1742336;79;27628;-64
2021/04/25 07:38:39;;;;;;;4.87;1.42;;;;;;;5.27;55.14;101280.95;1746998;80;25828;-64
2021/04/25 07:41:08;;;;;;;4.60;1.35;;;;;;;5.36;54.98;101284.83;1769904;79;25930;-67
2021/04/25 07:43:38;;;;;;;5.87;1.80;;;;;;;5.42;54.70;101285.21;1763991;79;26164;-63
2021/04/25 07:46:09;;;;;;;7.85;1.80;;;;;;;5.44;54.61;101291.39;1769739;79;27053;-62
2021/04/25 07:48:37;;;;;;;6.28;1.65;;;;;;;5.45;54.47;101283.39;1748920;80;28458;-64
2021/04/25 07:51:04;;;;;;;10.90;1.80;;;;;;;5.49;54.16;101288.23;1743221;80;25781;-63
2021/04/25 07:53:32;;;;;;;6.28;1.52;;;;;;;5.55;53.79;101277.06;1749891;80;25863;-63
2021/04/25 07:56:00;;;;;;;9.38;1.98;;;;;;;5.60;53.61;101282.33;1741307;80;26319;-63
2021/04/25 07:58:30;;;;;;;4.65;1.20;;;;;;;5.64;53.14;101283.16;1740895;80;25860;-60
2021/04/25 08:00:58;;;;;;;4.30;1.00;;;;;;;5.69;53.12;101280.87;1716851;81;28885;-59
2021/04/25 08:03:25;;;;;;;2.05;1.10;;;;;;;5.78;52.77;101282.08;1767240;79;25898;-57
2021/04/25 08:05:53;;;;;;;5.83;1.20;;;;;;;5.82;52.14;101285.58;1762834;80;25753;-61
2021/04/25 08:08:22;;;;;;;5.80;1.32;;;;;;;5.79;51.87;101278.52;1769526;79;26238;-63
2021/04/25 08:10:52;;;;;;;9.68;1.30;;;;;;;5.82;51.82;101289.12;1773676;79;25916;-62
2021/04/25 08:13:20;;;;;;;3.83;1.55;;;;;;;5.87;51.38;101281.95;1748782;80;28291;-62
2021/04/25 08:15:50;;;;;;;3.33;1.17;;;;;;;5.93;51.40;101270.84;1746388;80;25841;-63
2021/04/25 08:18:18;;;;;;;10.05;1.55;;;;;;;6.05;51.44;101267.55;1781687;78;26391;-63
2021/04/25 08:20:46;;;;;;;5.67;1.80;;;;;;;6.15;51.33;101270.50;1766256;78;26140;-62
2021/04/25 08:23:15;;;;;;;3.58;1.42;;;;;;;6.28;50.94;101279.17;1774871;78;25819;-62
2021/04/25 08:25:42;;;;;;;1.72;1.12;;;;;;;6.35;50.88;101273.30;1744881;79;28480;-62
2021/04/25 08:28:11;;;;;;;2.02;0.93;;;;;;;6.46;49.30;101271.34;1752140;80;25724;-61
2021/04/25 08:30:41;;;;;;;5.33;0.90;;;;;;;6.46;49.86;101255.36;1735629;80;25813;-62
2021/04/25 08:33:08;;;;;;;1.92;0.80;;;;;;;6.57;49.57;101269.38;1700698;82;26248;-63
2021/04/25 08:35:36;;;;;;;4.30;0.82;;;;;;;6.67;48.98;101260.78;1745356;80;26534;-58
2021/04/25 08:38:04;;;;;;;2.20;1.12;;;;;;;6.73;48.18;101260.22;1744075;80;28630;-62
2021/04/25 08:40:35;;;;;;;4.28;1.10;;;;;;;6.87;47.86;101264.42;1766575;79;25869;-62
2021/04/25 08:43:05;;;;;;;10.03;1.30;;;;;;;6.92;47.69;101253.22;1755060;80;25840;-62
2021/04/25 08:45:36;;;;;;;4.33;0.90;;;;;;;7.06;47.60;101253.39;1739826;79;26706;-62
2021/04/25 08:48:06;;;;;;;9.60;1.15;;;;;;;7.33;47.83;101258.63;1717918;80;32549;-62
2021/04/25 08:50:37;;;;;;;8.63;1.45;;;;;;;7.59;47.58;101259.42;1748274;80;25830;-62
2021/04/25 08:53:10;;;;;;;18.20;2.42;;;;;;;7.73;46.94;101257.80;1747596;80;25739;-62
2021/04/25 08:55:39;;;;;;;11.68;1.75;;;;;;;7.73;46.30;101257.80;1745357;80;25692;-62
2021/04/25 08:58:11;;;;;;;21.95;2.08;;;;;;;7.65;45.62;101256.63;1759226;80;25801;-62
2021/04/25 09:00:40;;;;;;;3.83;0.90;;;;;;;7.59;44.90;101248.75;1769541;79;25773;-62
2021/04/25 09:03:08;;;;;;;1.35;0.80;;;;;;;7.53;44.24;101249.34;1742087;80;27721;-62
2021/04/25 09:05:38;;;;;;;1.98;0.60;;;;;;;7.51;43.82;101251.16;1720240;81;25934;-62
2021/04/25 09:08:07;;;;;;;2.95;1.70;;;;;;;7.67;43.91;101248.59;1727797;80;26412;-62
2021/04/25 09:10:39;;;;;;;3.25;1.02;;;;;;;7.88;43.88;101251.20;1768584;79;26331;-62
2021/04/25 09:13:24;;;;;;;8.45;1.02;;;;;;;8.06;42.64;101244.11;1754961;80;26306;-61
2021/04/25 09:15:57;;;;;;;5.55;1.05;;;;;;;8.26;42.82;101242.30;1753140;80;26459;-61
2021/04/25 09:18:34;;;;;;;0.95;0.68;;;;;;;8.46;41.89;101248.94;1728438;79;25971;-62
2021/04/25 09:21:11;;;;;;;2.87;0.80;;;;;;;8.57;41.47;101246.45;1738524;80;26044;-62
2021/04/25 09:23:40;;;;;;;2.58;0.70;;;;;;;8.42;40.42;101241.05;1753785;79;25994;-61
2021/04/25 09:26:10;;;;;;;2.22;0.50;;;;;;;8.41;40.66;101236.62;1775192;79;26633;-62
2021/04/25 09:28:40;;;;;;;2.60;1.07;;;;;;;8.32;38.95;101247.03;1708499;81;27375;-62
2021/04/25 09:31:16;;;;;;;12.33;2.85;;;;;;;8.13;37.33;101262.62;1718330;81;25913;-61
2021/04/25 09:33:57;;;;;;;11.93;2.35;;;;;;;7.92;37.00;101259.56;1715975;81;25863;-60
2021/04/25 09:36:32;;;;;;;7.53;0.97;;;;;;;7.74;37.38;101283.56;1747438;80;26451;-62
2021/04/25 09:39:16;;;;;;;5.42;0.85;;;;;;;7.47;37.93;101279.69;1736721;81;25887;-61
2021/04/25 09:41:46;;;;;;;4.65;1.35;;;;;;;7.38;38.49;101282.08;1744066;80;28011;-61
2021/04/25 09:44:38;;;;;;;4.97;1.50;;;;;;;7.33;38.80;101285.30;1737664;80;25889;-62
2021/04/25 09:47:07;;;;;;;6.55;1.37;;;;;;;7.02;39.28;101276.12;1741965;80;26103;-62
2021/04/25 09:49:41;;;;;;;6.55;1.25;;;;;;;6.91;39.88;101274.12;1754854;80;26011;-62
2021/04/25 09:52:14;;;;;;;6.95;2.05;;;;;;;6.93;40.39;101270.97;1741466;80;25955;-63
2021/04/25 09:54:41;;;;;;;2.42;1.22;;;;;;;7.08;40.82;101276.02;1738178;79;27331;-62
2021/04/25 09:57:15;;;;;;;1.92;0.60;;;;;;;7.28;41.10;101275.62;1764985;79;26161;-62
2021/04/25 09:59:52;;;;;;;8.08;1.60;;;;;;;7.38;41.29;101263.87;1735868;79;25851;-62
2021/04/25 10:02:21;;;;;;;2.25;0.85;;;;;;;7.62;41.63;101269.16;1739822;80;26990;-61
2021/04/25 10:04:52;;;;;;;3.77;1.60;;;;;;;7.97;41.83;101258.55;1762152;79;26442;-61
2021/04/25 10:07:27;;;;;;;4.60;1.37;;;;;;;8.28;41.97;101268.52;1750593;80;27659;-61
2021/04/25 10:10:15;;;;;;;2.90;1.20;;;;;;;8.52;41.91;101286.66;1736759;79;26554;-62
2021/04/25 10:12:43;;;;;;;5.65;0.93;;;;;;;8.45;40.35;101267.22;1743824;79;25870;-62
2021/04/25 10:15:13;;;;;;;4.47;0.70;;;;;;;8.09;39.93;101271.61;1696201;81;25896;-62
2021/04/25 10:17:44;;;;;;;2.10;0.80;;;;;;;8.10;40.40;101272.49;1760170;79;25913;-62
2021/04/25 10:20:21;;;;;;;2.15;0.88;;;;;;;8.18;39.87;101263.84;1733580;79;27968;-63
2021/04/25 10:22:55;;;;;;;6.05;0.90;;;;;;;8.16;39.72;101268.34;1741533;80;25755;-62
2021/04/25 10:25:37;;;;;;;0.80;0.60;;;;;;;8.26;39.44;101266.34;1742066;79;26003;-62
2021/04/25 10:28:14;;;;;;;4.55;1.00;;;;;;;8.24;39.36;101279.72;1740537;80;26200;-62
2021/04/25 10:30:46;;;;;;;1.55;1.10;;;;;;;8.27;39.32;101263.63;1751822;79;26084;-61
2021/04/25 10:33:15;;;;;;;2.08;0.70;;;;;;;8.42;38.61;101259.28;1747730;80;27745;-62
2021/04/25 10:35:56;;;;;;;1.95;0.53;;;;;;;8.54;38.79;101266.58;1749968;79;26147;-62
2021/04/25 10:38:38;;;;;;;0.93;0.68;;;;;;;8.65;38.00;101258.70;1705091;81;27011;-62
2021/04/25 10:41:27;;;;;;;1.27;0.90;;;;;;;8.74;37.98;101266.48;1743710;79;26755;-61
2021/04/25 10:44:05;;;;;;;3.30;0.80;;;;;;;8.79;37.01;101264.57;1744478;80;25895;-60
2021/04/25 10:46:58;;;;;;;5.15;0.75;;;;;;;8.74;37.32;101262.48;1729684;80;27897;-63
2021/04/25 10:49:32;;;;;;;1.82;0.85;;;;;;;8.74;36.61;101257.13;1749226;79;26155;-61
2021/04/25 10:52:28;;;;;;;2.45;0.70;;;;;;;8.85;36.00;101262.66;1749070;80;26347;-61
2021/04/25 10:55:19;;;;;;;2.77;0.65;;;;;;;8.80;36.18;101248.08;1764177;78;26499;-61
2021/04/25 10:58:03;;;;;;;2.72;0.72;;;;;;;9.03;36.50;101252.80;1762529;78;25860;-62
2021/04/25 11:03:20;;;;;;;2.98;0.60;;;;;;;9.56;36.22;101250.41;1763500;79;26423;-62
2021/04/25 11:05:51;;;;;;;5.25;0.90;;;;;;;9.71;36.02;101244.59;1762578;78;25882;-62
2021/04/25 11:08:39;;;;;;;1.25;0.78;;;;;;;9.66;34.79;101243.41;1764301;78;25870;-62
2021/04/25 11:11:10;;;;;;;8.33;1.00;;;;;;;9.61;35.12;101255.16;1735855;81;26145;-63
2021/04/25 11:13:46;;;;;;;3.00;0.70;;;;;;;9.61;32.92;101253.83;1743720;79;28428;-63
2021/04/25 11:16:26;;;;;;;4.97;0.90;;;;;;;9.43;32.58;101257.92;1746487;80;26622;-62
2021/04/25 11:19:04;;;;;;;1.67;0.80;;;;;;;9.34;32.81;101259.06;1747004;80;25893;-63
2021/04/25 11:24:08;;;;;;;6.40;1.07;;;;;;;9.40;33.88;101253.53;1727647;81;25739;-62
2021/04/25 11:26:42;;;;;;;13.58;1.10;;;;;;;9.34;33.60;101253.70;1725141;80;27749;-61
2021/04/25 11:29:30;;;;;;;5.80;0.68;;;;;;;9.17;33.20;101275.16;1752321;80;26381;-62
2021/04/25 11:32:00;;;;;;;1.50;0.78;;;;;;;8.83;33.28;101276.06;1723218;81;25860;-61
2021/04/25 11:34:37;;;;;;;0.65;0.40;;;;;;;8.68;33.74;101282.68;1770983;79;26098;-61
2021/04/25 11:37:18;;;;;;;3.98;0.47;;;;;;;8.72;33.95;101284.81;1740617;80;25783;-62
2021/04/25 11:40:03;;;;;;;0.75;0.47;;;;;;;8.74;32.87;101277.17;1741304;79;28095;-62
2021/04/25 11:42:54;;;;;;;2.58;0.70;;;;;;;8.66;33.81;101270.27;1746438;80;26465;-61
2021/04/25 11:45:27;;;;;;;1.30;0.80;;;;;;;8.89;33.76;101273.69;1741749;80;25825;-62
2021/04/25 11:48:01;;;;;;;2.50;0.85;;;;;;;8.98;33.74;101263.63;1744657;79;26204;-60
2021/04/25 11:50:37;;;;;;;2.02;0.85;;;;;;;9.13;33.87;101259.66;1753690;80;25877;-61
2021/04/25 11:53:04;;;;;;;1.98;0.78;;;;;;;9.24;33.89;101258.02;1777660;79;26261;-60